Jade — 9HVS8 — position and weather

sailwx.info

Track history (hours):
 
Tides and Currents Weather Stations Pressure Air Temp Water Temp Dewpoint Dewpoint Depression Visibility Wind Speed Wind Dir Waves Ship Positions

Jade

Last reported at 2014-Aug-22 07:13 UTC. Time now 2014-Aug-28 09:28 UTC.
Position N 38°05' E 015°33'.

Length 175 m; draft 8 m.

Type: Tanker. MMSI: 256491000.

Date/timePositionNaut miles runAvg speedWind from/ knotsBaromVisibWave heightAir tempDewpointWater temp
2014-Aug-22 07:13N 38°05' E 015°33'1413.4
2014-Aug-22 06:10N 38°18' E 015°40'19 1.6
2014-Aug-21 18:32N 38°13' E 015°16'0 0.0
2014-Aug-21 17:32N 38°13' E 015°16'0 0.0
2014-Aug-21 16:32N 38°13' E 015°16'0 0.0
2014-Aug-21 15:32N 38°13' E 015°16'0 0.0
2014-Aug-21 14:32N 38°13' E 015°16'0 0.0
2014-Aug-21 13:32N 38°13' E 015°16'0 0.0
2014-Aug-21 12:32N 38°13' E 015°16'0 0.0
2014-Aug-21 11:32N 38°13' E 015°16'0 0.0
2014-Aug-21 10:32N 38°13' E 015°16'0 0.0
2014-Aug-21 09:32N 38°13' E 015°16'0 0.0
2014-Aug-21 08:32N 38°13' E 015°16'  
2014-Aug-12 23:33N 36°04' E 023°07'2214.8
2014-Aug-12 22:04N 36°24' E 023°18'2214.3
2014-Aug-12 20:30N 36°44' E 023°30'1614.3
2014-Aug-12 19:24N 36°58' E 023°39'1214.4
2014-Aug-12 18:33N 37°08' E 023°48'1514.2
2014-Aug-12 17:31N 37°21' E 023°57'1414.7
2014-Aug-12 16:32N 37°33' E 024°07'1514.3
2014-Aug-12 15:28N 37°45' E 024°19'1413.9
2014-Aug-12 14:29N 37°53' E 024°33'6214.2
2014-Aug-12 10:08N 38°48' E 025°08'814.3
2014-Aug-12 09:33N 38°56' E 025°13'1714.4
2014-Aug-12 08:21N 39°11' E 025°22'1114.3
2014-Aug-12 07:33N 39°21' E 025°29'  
Track history (hours):
 
Tides and Currents Weather Stations Pressure Air Temp Water Temp Dewpoint Dewpoint Depression Visibility Wind Speed Wind Dir Waves Ship Positions

Jade

Last reported at 2014-Aug-22 07:13 UTC. Time now 2014-Aug-28 09:28 UTC.
Position N 38°05' E 015°33'.

Length 175 m; draft 8 m.

Type: Tanker. MMSI: 256491000.

Date/timePositionNaut miles runAvg speedWind from/ knotsBaromVisibWave heightAir tempDewpointWater temp
2014-Aug-22 07:13N 38°05' E 015°33'1413.4
2014-Aug-22 06:10N 38°18' E 015°40'19 1.6
2014-Aug-21 18:32N 38°13' E 015°16'0 0.0
2014-Aug-21 17:32N 38°13' E 015°16'0 0.0
2014-Aug-21 16:32N 38°13' E 015°16'0 0.0
2014-Aug-21 15:32N 38°13' E 015°16'0 0.0
2014-Aug-21 14:32N 38°13' E 015°16'0 0.0
2014-Aug-21 13:32N 38°13' E 015°16'0 0.0
2014-Aug-21 12:32N 38°13' E 015°16'0 0.0
2014-Aug-21 11:32N 38°13' E 015°16'0 0.0
2014-Aug-21 10:32N 38°13' E 015°16'0 0.0
2014-Aug-21 09:32N 38°13' E 015°16'0 0.0
2014-Aug-21 08:32N 38°13' E 015°16'  
2014-Aug-12 23:33N 36°04' E 023°07'2214.8
2014-Aug-12 22:04N 36°24' E 023°18'2214.3
2014-Aug-12 20:30N 36°44' E 023°30'1614.3
2014-Aug-12 19:24N 36°58' E 023°39'1214.4
2014-Aug-12 18:33N 37°08' E 023°48'1514.2
2014-Aug-12 17:31N 37°21' E 023°57'1414.7
2014-Aug-12 16:32N 37°33' E 024°07'1514.3
2014-Aug-12 15:28N 37°45' E 024°19'1413.9
2014-Aug-12 14:29N 37°53' E 024°33'6214.2
2014-Aug-12 10:08N 38°48' E 025°08'814.3
2014-Aug-12 09:33N 38°56' E 025°13'1714.4
2014-Aug-12 08:21N 39°11' E 025°22'1114.3
2014-Aug-12 07:33N 39°21' E 025°29'  

Dump ship's entire track history